sensor_id;sensor_type;location;lat;lon;timestamp;P1;durP1;ratioP1;P2;durP2;ratioP2
67867;SDS011;54672;46.096;14.470;2022-12-29T00:01:34;28.45;;;12.38;;
67867;SDS011;54672;46.096;14.470;2022-12-29T00:04:00;25.98;;;11.75;;
67867;SDS011;54672;46.096;14.470;2022-12-29T00:06:26;24.40;;;11.13;;
67867;SDS011;54672;46.096;14.470;2022-12-29T00:08:51;18.80;;;9.80;;
67867;SDS011;54672;46.096;14.470;2022-12-29T00:11:21;22.10;;;10.43;;
67867;SDS011;54672;46.096;14.470;2022-12-29T00:13:48;21.15;;;10.75;;
67867;SDS011;54672;46.096;14.470;2022-12-29T00:16:33;23.50;;;10.85;;
67867;SDS011;54672;46.096;14.470;2022-12-29T00:18:59;27.70;;;10.52;;
67867;SDS011;54672;46.096;14.470;2022-12-29T00:21:25;20.13;;;10.63;;
67867;SDS011;54672;46.096;14.470;2022-12-29T00:24:20;23.13;;;9.85;;
67867;SDS011;54672;46.096;14.470;2022-12-29T00:29:53;23.52;;;10.32;;
67867;SDS011;54672;46.096;14.470;2022-12-29T00:32:37;22.63;;;10.35;;
67867;SDS011;54672;46.096;14.470;2022-12-29T00:35:55;17.58;;;9.65;;
67867;SDS011;54672;46.096;14.470;2022-12-29T00:38:21;24.40;;;10.32;;
67867;SDS011;54672;46.096;14.470;2022-12-29T00:41:05;24.52;;;10.32;;
67867;SDS011;54672;46.096;14.470;2022-12-29T00:43:48;23.17;;;11.10;;
67867;SDS011;54672;46.096;14.470;2022-12-29T00:46:35;25.60;;;10.82;;
67867;SDS011;54672;46.096;14.470;2022-12-29T00:49:02;22.17;;;10.65;;
67867;SDS011;54672;46.096;14.470;2022-12-29T00:51:46;24.60;;;10.65;;
67867;SDS011;54672;46.096;14.470;2022-12-29T00:54:12;21.05;;;10.18;;
67867;SDS011;54672;46.096;14.470;2022-12-29T00:56:38;23.92;;;10.45;;
67867;SDS011;54672;46.096;14.470;2022-12-29T00:59:04;23.40;;;11.75;;
67867;SDS011;54672;46.096;14.470;2022-12-29T01:01:31;29.77;;;11.40;;
67867;SDS011;54672;46.096;14.470;2022-12-29T01:03:57;23.95;;;11.10;;
67867;SDS011;54672;46.096;14.470;2022-12-29T01:06:22;26.75;;;11.45;;
67867;SDS011;54672;46.096;14.470;2022-12-29T01:08:48;21.70;;;10.55;;
67867;SDS011;54672;46.096;14.470;2022-12-29T01:11:37;30.40;;;10.60;;
67867;SDS011;54672;46.096;14.470;2022-12-29T01:14:03;22.38;;;10.52;;
67867;SDS011;54672;46.096;14.470;2022-12-29T01:16:29;22.33;;;10.75;;
67867;SDS011;54672;46.096;14.470;2022-12-29T01:18:55;26.65;;;10.90;;
67867;SDS011;54672;46.096;14.470;2022-12-29T01:21:20;26.58;;;11.02;;
67867;SDS011;54672;46.096;14.470;2022-12-29T01:23:46;20.98;;;10.65;;
67867;SDS011;54672;46.096;14.470;2022-12-29T01:26:12;18.90;;;9.98;;
67867;SDS011;54672;46.096;14.470;2022-12-29T01:28:40;20.50;;;9.65;;
67867;SDS011;54672;46.096;14.470;2022-12-29T01:31:06;19.33;;;9.18;;
67867;SDS011;54672;46.096;14.470;2022-12-29T01:33:33;21.25;;;9.35;;
67867;SDS011;54672;46.096;14.470;2022-12-29T01:36:02;19.95;;;9.75;;
67867;SDS011;54672;46.096;14.470;2022-12-29T01:38:28;18.25;;;7.82;;
67867;SDS011;54672;46.096;14.470;2022-12-29T01:40:53;21.95;;;8.55;;
67867;SDS011;54672;46.096;14.470;2022-12-29T01:43:19;21.33;;;8.77;;
67867;SDS011;54672;46.096;14.470;2022-12-29T01:45:49;20.20;;;8.77;;
67867;SDS011;54672;46.096;14.470;2022-12-29T01:48:16;18.77;;;9.85;;
67867;SDS011;54672;46.096;14.470;2022-12-29T01:50:50;21.13;;;10.38;;
67867;SDS011;54672;46.096;14.470;2022-12-29T01:53:21;21.70;;;9.98;;
67867;SDS011;54672;46.096;14.470;2022-12-29T01:55:54;24.40;;;10.38;;
67867;SDS011;54672;46.096;14.470;2022-12-29T01:58:24;28.05;;;12.00;;
67867;SDS011;54672;46.096;14.470;2022-12-29T02:00:54;22.95;;;10.95;;
67867;SDS011;54672;46.096;14.470;2022-12-29T02:03:19;24.88;;;11.02;;
67867;SDS011;54672;46.096;14.470;2022-12-29T02:05:49;23.08;;;9.30;;
67867;SDS011;54672;46.096;14.470;2022-12-29T02:10:50;18.02;;;9.65;;
67867;SDS011;54672;46.096;14.470;2022-12-29T02:13:16;20.48;;;9.48;;
67867;SDS011;54672;46.096;14.470;2022-12-29T02:24:28;23.17;;;10.68;;
67867;SDS011;54672;46.096;14.470;2022-12-29T02:29:57;23.33;;;10.13;;
67867;SDS011;54672;46.096;14.470;2022-12-29T02:43:08;27.92;;;11.13;;
67867;SDS011;54672;46.096;14.470;2022-12-29T02:48:37;21.40;;;9.88;;
67867;SDS011;54672;46.096;14.470;2022-12-29T02:51:09;23.00;;;9.65;;
67867;SDS011;54672;46.096;14.470;2022-12-29T02:53:40;24.60;;;10.48;;
67867;SDS011;54672;46.096;14.470;2022-12-29T02:56:25;23.73;;;9.93;;
67867;SDS011;54672;46.096;14.470;2022-12-29T02:58:50;26.20;;;10.43;;
67867;SDS011;54672;46.096;14.470;2022-12-29T03:01:23;23.13;;;10.50;;
67867;SDS011;54672;46.096;14.470;2022-12-29T03:09:43;49.50;;;14.85;;
67867;SDS011;54672;46.096;14.470;2022-12-29T03:12:30;51.72;;;17.65;;
67867;SDS011;54672;46.096;14.470;2022-12-29T03:15:22;24.77;;;11.20;;
67867;SDS011;54672;46.096;14.470;2022-12-29T03:21:50;23.27;;;10.80;;
67867;SDS011;54672;46.096;14.470;2022-12-29T03:24:36;20.23;;;8.50;;
67867;SDS011;54672;46.096;14.470;2022-12-29T03:27:05;27.35;;;10.52;;
67867;SDS011;54672;46.096;14.470;2022-12-29T03:29:36;26.52;;;10.60;;
67867;SDS011;54672;46.096;14.470;2022-12-29T03:32:07;19.27;;;9.70;;
67867;SDS011;54672;46.096;14.470;2022-12-29T03:34:34;19.58;;;9.85;;
67867;SDS011;54672;46.096;14.470;2022-12-29T03:37:05;23.33;;;10.07;;
67867;SDS011;54672;46.096;14.470;2022-12-29T03:39:36;20.42;;;10.20;;
67867;SDS011;54672;46.096;14.470;2022-12-29T03:42:03;21.55;;;9.95;;
67867;SDS011;54672;46.096;14.470;2022-12-29T03:44:32;15.65;;;6.75;;
67867;SDS011;54672;46.096;14.470;2022-12-29T03:46:59;18.33;;;8.65;;
67867;SDS011;54672;46.096;14.470;2022-12-29T03:49:25;17.52;;;7.72;;
67867;SDS011;54672;46.096;14.470;2022-12-29T03:51:50;16.15;;;5.90;;
67867;SDS011;54672;46.096;14.470;2022-12-29T03:54:16;13.05;;;5.32;;
67867;SDS011;54672;46.096;14.470;2022-12-29T03:56:41;16.23;;;5.85;;
67867;SDS011;54672;46.096;14.470;2022-12-29T03:59:06;14.40;;;5.50;;
67867;SDS011;54672;46.096;14.470;2022-12-29T04:01:32;16.45;;;6.63;;
67867;SDS011;54672;46.096;14.470;2022-12-29T04:03:57;21.33;;;9.77;;
67867;SDS011;54672;46.096;14.470;2022-12-29T04:06:22;16.10;;;7.80;;
67867;SDS011;54672;46.096;14.470;2022-12-29T04:08:48;16.55;;;8.35;;
67867;SDS011;54672;46.096;14.470;2022-12-29T04:11:14;20.73;;;9.35;;
67867;SDS011;54672;46.096;14.470;2022-12-29T04:13:39;19.13;;;9.18;;
67867;SDS011;54672;46.096;14.470;2022-12-29T04:16:06;18.75;;;9.00;;
67867;SDS011;54672;46.096;14.470;2022-12-29T04:18:32;18.00;;;8.75;;
67867;SDS011;54672;46.096;14.470;2022-12-29T04:20:57;16.45;;;8.25;;
67867;SDS011;54672;46.096;14.470;2022-12-29T04:23:29;19.83;;;9.38;;
67867;SDS011;54672;46.096;14.470;2022-12-29T04:25:57;21.92;;;9.63;;
67867;SDS011;54672;46.096;14.470;2022-12-29T04:28:22;18.73;;;8.88;;
67867;SDS011;54672;46.096;14.470;2022-12-29T04:30:48;20.00;;;9.82;;
67867;SDS011;54672;46.096;14.470;2022-12-29T04:33:13;16.90;;;8.38;;
67867;SDS011;54672;46.096;14.470;2022-12-29T04:35:39;16.02;;;7.22;;
67867;SDS011;54672;46.096;14.470;2022-12-29T04:38:04;10.30;;;4.80;;
67867;SDS011;54672;46.096;14.470;2022-12-29T04:40:30;12.65;;;5.68;;
67867;SDS011;54672;46.096;14.470;2022-12-29T04:42:55;13.88;;;5.07;;
67867;SDS011;54672;46.096;14.470;2022-12-29T04:45:21;18.67;;;7.90;;
67867;SDS011;54672;46.096;14.470;2022-12-29T04:47:46;14.75;;;6.85;;
67867;SDS011;54672;46.096;14.470;2022-12-29T04:50:12;23.02;;;10.50;;
67867;SDS011;54672;46.096;14.470;2022-12-29T04:52:37;23.67;;;9.20;;
67867;SDS011;54672;46.096;14.470;2022-12-29T04:55:04;21.17;;;10.65;;
67867;SDS011;54672;46.096;14.470;2022-12-29T04:57:29;21.15;;;8.50;;
67867;SDS011;54672;46.096;14.470;2022-12-29T04:59:55;20.65;;;9.50;;
67867;SDS011;54672;46.096;14.470;2022-12-29T05:02:20;23.60;;;9.43;;
67867;SDS011;54672;46.096;14.470;2022-12-29T05:04:46;15.65;;;7.97;;
67867;SDS011;54672;46.096;14.470;2022-12-29T05:07:11;17.67;;;8.95;;
67867;SDS011;54672;46.096;14.470;2022-12-29T05:09:37;21.38;;;7.93;;
67867;SDS011;54672;46.096;14.470;2022-12-29T05:12:03;14.38;;;7.10;;
67867;SDS011;54672;46.096;14.470;2022-12-29T05:14:28;11.65;;;5.55;;
67867;SDS011;54672;46.096;14.470;2022-12-29T05:16:54;16.45;;;8.05;;
67867;SDS011;54672;46.096;14.470;2022-12-29T05:19:19;14.52;;;6.65;;
67867;SDS011;54672;46.096;14.470;2022-12-29T05:21:44;16.27;;;7.20;;
67867;SDS011;54672;46.096;14.470;2022-12-29T05:24:10;16.63;;;7.35;;
67867;SDS011;54672;46.096;14.470;2022-12-29T05:26:35;15.60;;;6.80;;
67867;SDS011;54672;46.096;14.470;2022-12-29T05:29:01;14.18;;;6.53;;
67867;SDS011;54672;46.096;14.470;2022-12-29T05:31:26;15.32;;;6.07;;
67867;SDS011;54672;46.096;14.470;2022-12-29T05:33:52;17.00;;;7.78;;
67867;SDS011;54672;46.096;14.470;2022-12-29T05:36:17;15.60;;;7.90;;
67867;SDS011;54672;46.096;14.470;2022-12-29T05:38:43;16.05;;;6.72;;
67867;SDS011;54672;46.096;14.470;2022-12-29T05:41:09;20.17;;;8.20;;
67867;SDS011;54672;46.096;14.470;2022-12-29T05:43:34;16.42;;;8.02;;
67867;SDS011;54672;46.096;14.470;2022-12-29T05:46:00;18.45;;;6.43;;
67867;SDS011;54672;46.096;14.470;2022-12-29T05:48:25;23.52;;;11.65;;
67867;SDS011;54672;46.096;14.470;2022-12-29T05:50:51;18.75;;;9.07;;
67867;SDS011;54672;46.096;14.470;2022-12-29T05:53:17;21.10;;;10.30;;
67867;SDS011;54672;46.096;14.470;2022-12-29T05:55:43;23.02;;;10.07;;
67867;SDS011;54672;46.096;14.470;2022-12-29T05:58:09;19.77;;;9.73;;
67867;SDS011;54672;46.096;14.470;2022-12-29T06:00:35;19.20;;;8.57;;
67867;SDS011;54672;46.096;14.470;2022-12-29T06:03:00;22.85;;;8.98;;
67867;SDS011;54672;46.096;14.470;2022-12-29T06:05:25;29.50;;;14.45;;
67867;SDS011;54672;46.096;14.470;2022-12-29T06:07:51;21.50;;;10.63;;
67867;SDS011;54672;46.096;14.470;2022-12-29T06:10:16;17.75;;;8.95;;
67867;SDS011;54672;46.096;14.470;2022-12-29T06:12:42;21.90;;;10.73;;
67867;SDS011;54672;46.096;14.470;2022-12-29T06:15:07;21.13;;;8.48;;
67867;SDS011;54672;46.096;14.470;2022-12-29T06:17:33;21.77;;;10.15;;
67867;SDS011;54672;46.096;14.470;2022-12-29T06:19:59;21.60;;;9.70;;
67867;SDS011;54672;46.096;14.470;2022-12-29T06:22:24;20.30;;;8.55;;
67867;SDS011;54672;46.096;14.470;2022-12-29T06:24:50;16.48;;;7.43;;
67867;SDS011;54672;46.096;14.470;2022-12-29T06:27:15;19.15;;;6.35;;
67867;SDS011;54672;46.096;14.470;2022-12-29T06:29:41;13.30;;;6.60;;
67867;SDS011;54672;46.096;14.470;2022-12-29T06:32:07;13.88;;;6.05;;
67867;SDS011;54672;46.096;14.470;2022-12-29T06:34:33;11.50;;;5.25;;
67867;SDS011;54672;46.096;14.470;2022-12-29T06:36:59;11.52;;;5.50;;
67867;SDS011;54672;46.096;14.470;2022-12-29T06:39:24;10.13;;;5.50;;
67867;SDS011;54672;46.096;14.470;2022-12-29T06:41:53;12.77;;;5.68;;
67867;SDS011;54672;46.096;14.470;2022-12-29T06:44:22;15.27;;;6.13;;
67867;SDS011;54672;46.096;14.470;2022-12-29T06:46:48;12.15;;;5.28;;
67867;SDS011;54672;46.096;14.470;2022-12-29T06:49:13;12.48;;;5.18;;
67867;SDS011;54672;46.096;14.470;2022-12-29T06:51:39;10.77;;;4.65;;
67867;SDS011;54672;46.096;14.470;2022-12-29T06:54:05;7.80;;;4.10;;
67867;SDS011;54672;46.096;14.470;2022-12-29T06:56:30;7.90;;;4.00;;
67867;SDS011;54672;46.096;14.470;2022-12-29T06:58:56;8.55;;;4.50;;
67867;SDS011;54672;46.096;14.470;2022-12-29T07:01:21;8.23;;;4.03;;
67867;SDS011;54672;46.096;14.470;2022-12-29T07:03:47;11.45;;;5.03;;
67867;SDS011;54672;46.096;14.470;2022-12-29T07:06:12;14.80;;;6.40;;
67867;SDS011;54672;46.096;14.470;2022-12-29T07:08:38;14.90;;;6.72;;
67867;SDS011;54672;46.096;14.470;2022-12-29T07:11:04;13.85;;;6.45;;
67867;SDS011;54672;46.096;14.470;2022-12-29T07:13:29;10.27;;;5.55;;
67867;SDS011;54672;46.096;14.470;2022-12-29T07:15:55;17.35;;;6.60;;
67867;SDS011;54672;46.096;14.470;2022-12-29T07:18:20;13.27;;;6.07;;
67867;SDS011;54672;46.096;14.470;2022-12-29T07:20:46;15.90;;;6.70;;
67867;SDS011;54672;46.096;14.470;2022-12-29T07:23:12;21.17;;;8.52;;
67867;SDS011;54672;46.096;14.470;2022-12-29T07:25:37;16.73;;;6.63;;
67867;SDS011;54672;46.096;14.470;2022-12-29T07:28:05;12.30;;;5.45;;
67867;SDS011;54672;46.096;14.470;2022-12-29T07:30:30;13.63;;;6.75;;
67867;SDS011;54672;46.096;14.470;2022-12-29T07:32:56;14.52;;;7.65;;
67867;SDS011;54672;46.096;14.470;2022-12-29T07:35:21;16.02;;;6.95;;
67867;SDS011;54672;46.096;14.470;2022-12-29T07:37:47;17.67;;;7.85;;
67867;SDS011;54672;46.096;14.470;2022-12-29T07:40:13;15.45;;;7.20;;
67867;SDS011;54672;46.096;14.470;2022-12-29T07:42:39;13.43;;;6.65;;
67867;SDS011;54672;46.096;14.470;2022-12-29T07:45:04;15.98;;;7.10;;
67867;SDS011;54672;46.096;14.470;2022-12-29T07:47:30;10.75;;;5.70;;
67867;SDS011;54672;46.096;14.470;2022-12-29T07:49:55;12.10;;;5.93;;
67867;SDS011;54672;46.096;14.470;2022-12-29T07:52:21;16.25;;;6.72;;
67867;SDS011;54672;46.096;14.470;2022-12-29T07:54:46;13.20;;;7.05;;
67867;SDS011;54672;46.096;14.470;2022-12-29T07:57:12;14.15;;;6.47;;
67867;SDS011;54672;46.096;14.470;2022-12-29T07:59:37;13.80;;;5.90;;
67867;SDS011;54672;46.096;14.470;2022-12-29T08:02:03;19.45;;;7.70;;
67867;SDS011;54672;46.096;14.470;2022-12-29T08:04:28;13.50;;;6.22;;
67867;SDS011;54672;46.096;14.470;2022-12-29T08:06:53;15.18;;;7.32;;
67867;SDS011;54672;46.096;14.470;2022-12-29T08:09:19;31.27;;;10.70;;
67867;SDS011;54672;46.096;14.470;2022-12-29T08:11:44;22.10;;;8.98;;
67867;SDS011;54672;46.096;14.470;2022-12-29T08:14:10;20.13;;;9.20;;
67867;SDS011;54672;46.096;14.470;2022-12-29T08:16:35;18.45;;;8.15;;
67867;SDS011;54672;46.096;14.470;2022-12-29T08:19:01;13.65;;;6.43;;
67867;SDS011;54672;46.096;14.470;2022-12-29T08:21:28;13.90;;;7.35;;
67867;SDS011;54672;46.096;14.470;2022-12-29T08:23:53;19.75;;;7.32;;
67867;SDS011;54672;46.096;14.470;2022-12-29T08:26:19;13.93;;;6.78;;
67867;SDS011;54672;46.096;14.470;2022-12-29T08:28:44;14.77;;;6.90;;
67867;SDS011;54672;46.096;14.470;2022-12-29T08:31:10;14.77;;;6.68;;
67867;SDS011;54672;46.096;14.470;2022-12-29T08:33:35;12.25;;;6.35;;
67867;SDS011;54672;46.096;14.470;2022-12-29T08:36:01;12.35;;;6.47;;
67867;SDS011;54672;46.096;14.470;2022-12-29T08:38:28;14.38;;;7.22;;
67867;SDS011;54672;46.096;14.470;2022-12-29T08:40:54;20.38;;;7.32;;
67867;SDS011;54672;46.096;14.470;2022-12-29T08:43:21;14.77;;;6.75;;
67867;SDS011;54672;46.096;14.470;2022-12-29T08:45:46;12.25;;;5.47;;
67867;SDS011;54672;46.096;14.470;2022-12-29T08:48:12;12.63;;;5.45;;
67867;SDS011;54672;46.096;14.470;2022-12-29T08:50:37;13.70;;;6.65;;
67867;SDS011;54672;46.096;14.470;2022-12-29T08:53:02;12.65;;;5.85;;
67867;SDS011;54672;46.096;14.470;2022-12-29T08:55:28;19.23;;;6.22;;
67867;SDS011;54672;46.096;14.470;2022-12-29T08:57:53;14.82;;;6.32;;
67867;SDS011;54672;46.096;14.470;2022-12-29T09:00:19;15.25;;;6.07;;
67867;SDS011;54672;46.096;14.470;2022-12-29T09:02:45;13.27;;;6.35;;
67867;SDS011;54672;46.096;14.470;2022-12-29T09:05:11;15.82;;;6.82;;
67867;SDS011;54672;46.096;14.470;2022-12-29T09:07:36;13.57;;;6.72;;
67867;SDS011;54672;46.096;14.470;2022-12-29T09:10:02;15.35;;;6.75;;
67867;SDS011;54672;46.096;14.470;2022-12-29T09:12:28;14.05;;;6.88;;
67867;SDS011;54672;46.096;14.470;2022-12-29T09:14:53;10.57;;;5.55;;
67867;SDS011;54672;46.096;14.470;2022-12-29T09:17:19;15.18;;;6.97;;
67867;SDS011;54672;46.096;14.470;2022-12-29T09:20:03;16.45;;;7.78;;
67867;SDS011;54672;46.096;14.470;2022-12-29T09:22:29;16.38;;;7.30;;
67867;SDS011;54672;46.096;14.470;2022-12-29T09:24:54;13.23;;;7.47;;
67867;SDS011;54672;46.096;14.470;2022-12-29T09:27:20;16.23;;;8.88;;
67867;SDS011;54672;46.096;14.470;2022-12-29T09:29:45;13.65;;;6.70;;
67867;SDS011;54672;46.096;14.470;2022-12-29T09:32:10;13.77;;;6.97;;
67867;SDS011;54672;46.096;14.470;2022-12-29T09:34:36;14.77;;;6.85;;
67867;SDS011;54672;46.096;14.470;2022-12-29T09:37:01;16.80;;;7.05;;
67867;SDS011;54672;46.096;14.470;2022-12-29T09:39:26;15.68;;;7.20;;
67867;SDS011;54672;46.096;14.470;2022-12-29T09:41:55;13.50;;;6.75;;
67867;SDS011;54672;46.096;14.470;2022-12-29T09:44:41;12.35;;;5.70;;
67867;SDS011;54672;46.096;14.470;2022-12-29T09:47:31;9.85;;;4.82;;
67867;SDS011;54672;46.096;14.470;2022-12-29T09:50:02;12.82;;;5.63;;
67867;SDS011;54672;46.096;14.470;2022-12-29T09:53:17;11.43;;;5.88;;
67867;SDS011;54672;46.096;14.470;2022-12-29T09:55:26;11.60;;;5.00;;
67867;SDS011;54672;46.096;14.470;2022-12-29T09:58:04;14.73;;;6.50;;
67867;SDS011;54672;46.096;14.470;2022-12-29T10:03:16;11.25;;;5.78;;
67867;SDS011;54672;46.096;14.470;2022-12-29T10:10:42;13.57;;;6.88;;
67867;SDS011;54672;46.096;14.470;2022-12-29T10:13:24;14.32;;;6.30;;
67867;SDS011;54672;46.096;14.470;2022-12-29T10:16:03;15.32;;;7.13;;
67867;SDS011;54672;46.096;14.470;2022-12-29T10:24:03;16.55;;;6.20;;
67867;SDS011;54672;46.096;14.470;2022-12-29T10:26:33;13.38;;;5.75;;
67867;SDS011;54672;46.096;14.470;2022-12-29T10:34:26;15.23;;;5.77;;
67867;SDS011;54672;46.096;14.470;2022-12-29T10:37:04;15.35;;;6.68;;
67867;SDS011;54672;46.096;14.470;2022-12-29T10:39:52;14.65;;;7.00;;
67867;SDS011;54672;46.096;14.470;2022-12-29T10:44:58;14.68;;;6.47;;
67867;SDS011;54672;46.096;14.470;2022-12-29T10:47:32;16.75;;;6.72;;
67867;SDS011;54672;46.096;14.470;2022-12-29T10:50:03;13.63;;;6.72;;
67867;SDS011;54672;46.096;14.470;2022-12-29T10:52:29;12.35;;;6.22;;
67867;SDS011;54672;46.096;14.470;2022-12-29T10:54:59;14.57;;;7.03;;
67867;SDS011;54672;46.096;14.470;2022-12-29T10:57:28;16.73;;;8.20;;
67867;SDS011;54672;46.096;14.470;2022-12-29T10:59:57;17.27;;;8.52;;
67867;SDS011;54672;46.096;14.470;2022-12-29T11:07:27;15.82;;;8.52;;
67867;SDS011;54672;46.096;14.470;2022-12-29T11:09:55;16.80;;;8.40;;
67867;SDS011;54672;46.096;14.470;2022-12-29T11:12:25;16.35;;;7.68;;
67867;SDS011;54672;46.096;14.470;2022-12-29T11:17:45;14.48;;;7.00;;
67867;SDS011;54672;46.096;14.470;2022-12-29T11:22:56;19.33;;;7.45;;
67867;SDS011;54672;46.096;14.470;2022-12-29T11:25:21;16.40;;;7.90;;
67867;SDS011;54672;46.096;14.470;2022-12-29T11:27:57;16.20;;;7.97;;
67867;SDS011;54672;46.096;14.470;2022-12-29T11:30:30;18.48;;;8.60;;
67867;SDS011;54672;46.096;14.470;2022-12-29T11:32:57;17.30;;;8.95;;
67867;SDS011;54672;46.096;14.470;2022-12-29T11:35:36;15.80;;;8.23;;
67867;SDS011;54672;46.096;14.470;2022-12-29T11:38:06;21.25;;;9.10;;
67867;SDS011;54672;46.096;14.470;2022-12-29T11:40:41;16.17;;;8.20;;
67867;SDS011;54672;46.096;14.470;2022-12-29T11:43:11;15.50;;;8.07;;
67867;SDS011;54672;46.096;14.470;2022-12-29T11:46:02;15.65;;;8.30;;
67867;SDS011;54672;46.096;14.470;2022-12-29T11:48:29;18.27;;;8.05;;
67867;SDS011;54672;46.096;14.470;2022-12-29T11:51:04;22.38;;;10.82;;
67867;SDS011;54672;46.096;14.470;2022-12-29T11:53:33;18.25;;;9.23;;
67867;SDS011;54672;46.096;14.470;2022-12-29T11:56:10;24.95;;;13.95;;
67867;SDS011;54672;46.096;14.470;2022-12-29T11:58:39;20.55;;;10.52;;
67867;SDS011;54672;46.096;14.470;2022-12-29T12:03:42;20.42;;;10.65;;
67867;SDS011;54672;46.096;14.470;2022-12-29T12:08:45;18.63;;;10.50;;
67867;SDS011;54672;46.096;14.470;2022-12-29T12:11:34;22.25;;;11.85;;
67867;SDS011;54672;46.096;14.470;2022-12-29T12:16:55;23.80;;;12.45;;
67867;SDS011;54672;46.096;14.470;2022-12-29T12:22:19;26.75;;;12.90;;
67867;SDS011;54672;46.096;14.470;2022-12-29T12:27:48;52.15;;;26.90;;
67867;SDS011;54672;46.096;14.470;2022-12-29T12:30:22;22.80;;;11.80;;
67867;SDS011;54672;46.096;14.470;2022-12-29T12:32:58;26.08;;;13.40;;
67867;SDS011;54672;46.096;14.470;2022-12-29T12:43:30;22.38;;;12.68;;
67867;SDS011;54672;46.096;14.470;2022-12-29T12:46:22;31.65;;;14.95;;
67867;SDS011;54672;46.096;14.470;2022-12-29T12:57:13;34.40;;;18.50;;
67867;SDS011;54672;46.096;14.470;2022-12-29T13:07:54;31.67;;;15.35;;
67867;SDS011;54672;46.096;14.470;2022-12-29T13:19:10;25.13;;;12.35;;
67867;SDS011;54672;46.096;14.470;2022-12-29T13:21:53;23.80;;;12.00;;
67867;SDS011;54672;46.096;14.470;2022-12-29T13:24:44;19.98;;;11.48;;
67867;SDS011;54672;46.096;14.470;2022-12-29T13:27:36;21.50;;;11.43;;
67867;SDS011;54672;46.096;14.470;2022-12-29T13:30:20;22.50;;;11.02;;
67867;SDS011;54672;46.096;14.470;2022-12-29T13:33:01;22.95;;;10.75;;
67867;SDS011;54672;46.096;14.470;2022-12-29T13:35:43;21.27;;;10.73;;
67867;SDS011;54672;46.096;14.470;2022-12-29T13:38:29;25.30;;;13.93;;
67867;SDS011;54672;46.096;14.470;2022-12-29T13:40:56;28.40;;;14.95;;
67867;SDS011;54672;46.096;14.470;2022-12-29T13:43:25;31.15;;;16.77;;
67867;SDS011;54672;46.096;14.470;2022-12-29T13:46:02;38.75;;;25.38;;
67867;SDS011;54672;46.096;14.470;2022-12-29T13:48:43;32.08;;;17.42;;
67867;SDS011;54672;46.096;14.470;2022-12-29T13:51:14;44.17;;;21.08;;
67867;SDS011;54672;46.096;14.470;2022-12-29T13:53:42;42.22;;;22.30;;
67867;SDS011;54672;46.096;14.470;2022-12-29T13:58:56;30.73;;;15.05;;
67867;SDS011;54672;46.096;14.470;2022-12-29T14:04:41;19.10;;;9.10;;
67867;SDS011;54672;46.096;14.470;2022-12-29T14:07:35;31.45;;;16.73;;
67867;SDS011;54672;46.096;14.470;2022-12-29T14:10:03;20.83;;;10.43;;
67867;SDS011;54672;46.096;14.470;2022-12-29T14:17:35;26.73;;;16.52;;
67867;SDS011;54672;46.096;14.470;2022-12-29T14:20:03;16.77;;;9.50;;
67867;SDS011;54672;46.096;14.470;2022-12-29T14:22:32;20.25;;;10.98;;
67867;SDS011;54672;46.096;14.470;2022-12-29T14:24:58;12.13;;;7.25;;
67867;SDS011;54672;46.096;14.470;2022-12-29T14:27:51;13.65;;;6.13;;
67867;SDS011;54672;46.096;14.470;2022-12-29T14:33:15;16.20;;;7.28;;
67867;SDS011;54672;46.096;14.470;2022-12-29T14:35:43;13.70;;;7.25;;
67867;SDS011;54672;46.096;14.470;2022-12-29T14:38:15;14.75;;;6.82;;
67867;SDS011;54672;46.096;14.470;2022-12-29T14:40:42;15.05;;;8.07;;
67867;SDS011;54672;46.096;14.470;2022-12-29T14:43:14;16.83;;;8.93;;
67867;SDS011;54672;46.096;14.470;2022-12-29T14:45:51;20.48;;;9.50;;
67867;SDS011;54672;46.096;14.470;2022-12-29T14:48:33;17.27;;;8.50;;
67867;SDS011;54672;46.096;14.470;2022-12-29T14:51:02;20.33;;;9.70;;
67867;SDS011;54672;46.096;14.470;2022-12-29T14:53:49;21.80;;;10.25;;
67867;SDS011;54672;46.096;14.470;2022-12-29T14:56:16;21.70;;;11.45;;
67867;SDS011;54672;46.096;14.470;2022-12-29T14:58:55;26.45;;;11.98;;
67867;SDS011;54672;46.096;14.470;2022-12-29T15:01:56;26.02;;;13.18;;
67867;SDS011;54672;46.096;14.470;2022-12-29T15:04:21;25.25;;;12.40;;
67867;SDS011;54672;46.096;14.470;2022-12-29T15:06:51;24.15;;;12.63;;
67867;SDS011;54672;46.096;14.470;2022-12-29T15:09:28;25.92;;;13.05;;
67867;SDS011;54672;46.096;14.470;2022-12-29T15:12:04;24.15;;;12.90;;
67867;SDS011;54672;46.096;14.470;2022-12-29T15:14:47;24.48;;;13.13;;
67867;SDS011;54672;46.096;14.470;2022-12-29T15:19:47;21.70;;;11.77;;
67867;SDS011;54672;46.096;14.470;2022-12-29T15:22:12;16.38;;;8.77;;
67867;SDS011;54672;46.096;14.470;2022-12-29T15:24:41;15.52;;;8.10;;
67867;SDS011;54672;46.096;14.470;2022-12-29T15:27:10;21.98;;;11.40;;
67867;SDS011;54672;46.096;14.470;2022-12-29T15:29:39;15.25;;;7.57;;
67867;SDS011;54672;46.096;14.470;2022-12-29T15:34:40;17.45;;;9.07;;
67867;SDS011;54672;46.096;14.470;2022-12-29T15:37:07;15.65;;;8.52;;
67867;SDS011;54672;46.096;14.470;2022-12-29T15:39:33;14.75;;;7.53;;
67867;SDS011;54672;46.096;14.470;2022-12-29T15:44:46;12.43;;;6.43;;
67867;SDS011;54672;46.096;14.470;2022-12-29T15:47:12;11.82;;;6.15;;
67867;SDS011;54672;46.096;14.470;2022-12-29T15:49:42;14.20;;;6.57;;
67867;SDS011;54672;46.096;14.470;2022-12-29T15:52:08;11.15;;;5.70;;
67867;SDS011;54672;46.096;14.470;2022-12-29T15:54:34;12.77;;;6.00;;
67867;SDS011;54672;46.096;14.470;2022-12-29T15:57:01;13.55;;;6.25;;
67867;SDS011;54672;46.096;14.470;2022-12-29T16:01:54;11.90;;;5.82;;
67867;SDS011;54672;46.096;14.470;2022-12-29T16:04:20;12.77;;;6.47;;
67867;SDS011;54672;46.096;14.470;2022-12-29T16:07:03;11.10;;;6.47;;
67867;SDS011;54672;46.096;14.470;2022-12-29T16:09:43;15.20;;;6.30;;
67867;SDS011;54672;46.096;14.470;2022-12-29T16:12:16;15.40;;;7.03;;
67867;SDS011;54672;46.096;14.470;2022-12-29T16:14:46;15.00;;;7.65;;
67867;SDS011;54672;46.096;14.470;2022-12-29T16:17:21;22.27;;;9.55;;
67867;SDS011;54672;46.096;14.470;2022-12-29T16:19:52;27.38;;;11.50;;
67867;SDS011;54672;46.096;14.470;2022-12-29T16:22:25;29.02;;;13.32;;
67867;SDS011;54672;46.096;14.470;2022-12-29T16:24:57;14.60;;;6.88;;
67867;SDS011;54672;46.096;14.470;2022-12-29T16:27:47;19.92;;;9.70;;
67867;SDS011;54672;46.096;14.470;2022-12-29T16:32:52;16.92;;;7.25;;
67867;SDS011;54672;46.096;14.470;2022-12-29T16:35:29;18.25;;;8.32;;
67867;SDS011;54672;46.096;14.470;2022-12-29T16:40:50;12.77;;;6.35;;
67867;SDS011;54672;46.096;14.470;2022-12-29T16:43:21;12.52;;;5.93;;
67867;SDS011;54672;46.096;14.470;2022-12-29T16:48:20;28.40;;;14.38;;
67867;SDS011;54672;46.096;14.470;2022-12-29T16:53:25;32.35;;;16.35;;
67867;SDS011;54672;46.096;14.470;2022-12-29T16:55:53;38.40;;;18.52;;
67867;SDS011;54672;46.096;14.470;2022-12-29T16:58:26;46.97;;;20.42;;
67867;SDS011;54672;46.096;14.470;2022-12-29T17:00:56;43.97;;;20.00;;
67867;SDS011;54672;46.096;14.470;2022-12-29T17:03:26;35.63;;;18.40;;
67867;SDS011;54672;46.096;14.470;2022-12-29T17:05:57;23.85;;;12.32;;
67867;SDS011;54672;46.096;14.470;2022-12-29T17:08:23;22.02;;;11.75;;